Startpagina
METAR-TAF:

METAR-TAF

Vliegvelden :

Tulcán, Ecuador

breedte: 00-48-34N, lengte: 077-42-29W, hoogte: 2941 m

Actueel weer

Dit bericht is 1 uur en het 56 minuten geleden gemaakt, om 21:00 UTC
Wind 8 kt uit het zuidoosten
Temperatuur 14°C
Vochtigheid 72%
Druk 1031 hPa
Zicht 10 km of meer
Gebroken wolken op 2000 ft

METAR: SETU 172100Z 14008KT 9999 BKN020 14/09 Q1031

Tijdstip: 17:56 (22:56 UTC)


TAF: ontbreekt

Waarnemingen en weersverwachtingen van meer dan 4000 vliegvelden (METAR en TAF).

De beschikbare stations zijn de gele en rode punten op de kaart.

Ga met uw muis naar het station om de naam te zien.

Klik dan om waarnemingen en weersverwachtingen te zien.

kaart wijzigen: klik op de groene knoppen met een zwart kruis om in te zoomen, op de groene knop met een streepje om uit te zoomen of op de groene pijlen voor aangrenzende kaarten.


METAR-TAF: